Time;durP1;ratioP1;P1;durP2;ratioP2;P2;SDS_P1;SDS_P2;PMS_P1;PMS_P2;Temp;Humidity;BMP_temperature;BMP_pressure;BME280_temperature;BME280_humidity;BME280_pressure;Samples;Min_cycle;Max_cycle;Signal;HPM_P1;HPM_P2
2022/03/13 00:00:48;;;;;;;19.73;11.63;;;-1.10;73.80;-2.30;101548;;;;557517;253;25249;-82
2022/03/13 00:03:15;;;;;;;19.83;11.43;;;-1.10;73.50;-2.30;101543;;;;562788;251;24101;-81
2022/03/13 00:05:45;;;;;;;16.43;11.43;;;-1.10;73.20;-2.40;101548;;;;555751;255;24176;-80
2022/03/13 00:08:32;;;;;;;22.00;12.20;;;-1.20;73.00;-2.40;101542;;;;566214;249;24124;-78
2022/03/13 00:10:56;;;;;;;19.07;11.80;;;-1.20;73.00;-2.50;101546;;;;557938;253;24115;-81
2022/03/13 00:13:21;;;;;;;26.43;12.97;;;-1.20;73.00;-2.50;101540;;;;557049;253;24158;-80
2022/03/13 00:15:51;;;;;;;18.53;11.47;;;-1.30;73.10;-2.60;101544;;;;557572;253;24091;-80
2022/03/13 00:18:17;;;;;;;20.40;11.83;;;-1.30;73.30;-2.60;101543;;;;559402;253;24138;-81
2022/03/13 00:20:48;;;;;;;18.17;11.57;;;-1.30;73.40;-2.60;101547;;;;559504;253;24119;-81
2022/03/13 00:23:12;;;;;;;17.77;11.47;;;-1.40;73.40;-2.70;101543;;;;567320;253;24102;-80
2022/03/13 00:25:45;;;;;;;22.30;12.03;;;-1.40;73.50;-2.70;101539;;;;558831;253;24177;-80
2022/03/13 00:28:14;;;;;;;20.00;12.53;;;-1.50;73.70;-2.70;101535;;;;558980;253;24120;-80
2022/03/13 00:30:42;;;;;;;22.73;11.43;;;-1.50;73.80;-2.80;101540;;;;558952;253;24112;-81
2022/03/13 00:33:07;;;;;;;20.83;11.63;;;-1.50;74.00;-2.70;101534;;;;567363;253;24226;-83
2022/03/13 00:35:38;;;;;;;17.53;11.20;;;-1.50;74.10;-2.70;101536;;;;559269;248;24111;-80
2022/03/13 00:38:03;;;;;;;21.27;11.27;;;-1.50;74.00;-2.60;101519;;;;558813;253;24154;-82
2022/03/13 00:40:30;;;;;;;19.60;12.33;;;-1.40;73.90;-2.60;101532;;;;558462;253;24105;-81
2022/03/13 00:42:58;;;;;;;22.53;11.03;;;-1.40;73.70;-2.50;101524;;;;558613;253;24120;-81
2022/03/13 00:45:28;;;;;;;21.10;11.50;;;-1.20;73.40;-2.40;101513;;;;558193;253;24115;-78
2022/03/13 00:47:56;;;;;;;19.37;11.63;;;-1.10;73.30;-2.40;101523;;;;558374;253;24100;-79
2022/03/13 00:50:27;;;;;;;20.40;12.13;;;-1.20;73.20;-2.30;101524;;;;566387;249;24141;-78
2022/03/13 00:52:52;;;;;;;20.17;11.20;;;-1.10;73.10;-2.30;101520;;;;557669;252;24185;-81
2022/03/13 00:55:19;;;;;;;16.83;11.03;;;-1.10;73.10;-2.30;101513;;;;558164;253;24110;-80
2022/03/13 00:57:48;;;;;;;17.63;11.67;;;-1.10;72.90;-2.30;101515;;;;563233;251;24096;-81
2022/03/13 01:00:17;;;;;;;19.93;11.73;;;-1.10;73.10;-2.40;101520;;;;553278;255;24121;-80
2022/03/13 01:02:48;;;;;;;19.87;11.63;;;-1.10;73.00;-2.40;101516;;;;562948;251;24125;-79
2022/03/13 01:05:13;;;;;;;18.23;11.77;;;-1.20;73.00;-2.50;101530;;;;552560;255;24161;-80
2022/03/13 01:07:41;;;;;;;21.63;11.07;;;-1.20;73.20;-2.50;101523;;;;557198;253;24113;-79
2022/03/13 01:10:09;;;;;;;19.40;11.73;;;-1.30;73.50;-2.60;101521;;;;557106;253;24114;-79
2022/03/13 01:12:38;;;;;;;18.70;11.47;;;-1.40;73.60;-2.60;101519;;;;557601;253;24169;-79
2022/03/13 01:15:07;;;;;;;18.37;11.33;;;-1.40;73.60;-2.60;101514;;;;556458;253;24098;-80
2022/03/13 01:17:35;;;;;;;20.03;11.90;;;-1.40;73.60;-2.70;101513;;;;557684;253;24100;-80
2022/03/13 01:20:03;;;;;;;18.37;11.27;;;-1.40;73.60;-2.70;101509;;;;557603;253;24206;-80
2022/03/13 01:22:31;;;;;;;17.50;10.67;;;-1.40;73.70;-2.60;101509;;;;556090;253;24125;-79
2022/03/13 01:24:58;;;;;;;15.67;9.70;;;-1.40;73.70;-2.60;101514;;;;558107;253;24112;-81
2022/03/13 01:27:26;;;;;;;14.53;9.47;;;-1.40;73.60;-2.60;101512;;;;558297;253;24123;-80
2022/03/13 01:29:54;;;;;;;19.00;10.40;;;-1.40;73.40;-2.60;101507;;;;563962;250;24138;-80
2022/03/13 01:32:22;;;;;;;16.83;10.17;;;-1.40;73.30;-2.60;101505;;;;559271;253;24102;-81
2022/03/13 01:34:54;;;;;;;16.17;10.60;;;-1.30;73.20;-2.60;101506;;;;558861;253;24114;-81
2022/03/13 01:37:31;;;;;;;17.17;11.73;;;-1.30;73.10;-2.60;101508;;;;558900;253;24128;-81
2022/03/13 01:39:59;;;;;;;19.80;10.83;;;-1.30;73.10;-2.50;101503;;;;558460;253;24102;-81
2022/03/13 01:42:26;;;;;;;16.27;11.40;;;-1.30;73.00;-2.50;101503;;;;558547;253;24128;-83
2022/03/13 01:44:56;;;;;;;21.67;12.40;;;-1.30;72.90;-2.50;101506;;;;558391;253;24113;-80
2022/03/13 01:47:23;;;;;;;25.27;12.60;;;-1.20;72.90;-2.40;101508;;;;558065;253;24088;-80
2022/03/13 01:49:51;;;;;;;21.80;11.60;;;-1.20;72.80;-2.40;101501;;;;562826;251;24140;-81
2022/03/13 01:52:19;;;;;;;20.20;11.77;;;-1.20;72.70;-2.40;101506;;;;553499;255;24154;-82
2022/03/13 01:54:47;;;;;;;19.63;11.63;;;-1.20;72.70;-2.40;101507;;;;552736;255;24144;-79
2022/03/13 01:57:15;;;;;;;18.37;10.93;;;-1.20;72.70;-2.40;101498;;;;553723;255;24235;-82
2022/03/13 01:59:47;;;;;;;20.80;11.33;;;-1.20;72.70;-2.30;101497;;;;566686;251;25180;-83
2022/03/13 02:02:12;;;;;;;19.13;12.07;;;-1.10;72.80;-2.30;101498;;;;555512;255;24127;-82
2022/03/13 02:04:41;;;;;;;18.77;11.10;;;-1.10;72.80;-2.30;101504;;;;553992;255;24126;-84
2022/03/13 02:07:10;;;;;;;19.37;11.67;;;-1.00;72.80;-2.30;101497;;;;563665;251;24129;-82
2022/03/13 02:09:36;;;;;;;16.97;10.73;;;-1.00;72.70;-2.30;101497;;;;558041;253;24130;-84
2022/03/13 02:12:08;;;;;;;18.27;11.50;;;-1.00;72.70;-2.30;101502;;;;558055;253;24120;-83
2022/03/13 02:14:32;;;;;;;16.57;11.27;;;-1.00;72.70;-2.30;101502;;;;558263;253;24191;-83
2022/03/13 02:17:00;;;;;;;18.60;10.90;;;-1.10;72.80;-2.40;101513;;;;558378;253;24114;-83
2022/03/13 02:19:29;;;;;;;16.47;10.57;;;-1.20;72.90;-2.40;101504;;;;557879;253;24102;-83
2022/03/13 02:21:57;;;;;;;21.00;11.50;;;-1.20;73.20;-2.40;101509;;;;563572;251;24117;-82
2022/03/13 02:24:28;;;;;;;19.40;11.57;;;-1.20;73.20;-2.50;101516;;;;558351;253;24177;-82
2022/03/13 02:27:03;;;;;;;21.30;11.50;;;-1.30;73.40;-2.50;101516;;;;558260;253;25143;-81
2022/03/13 02:29:34;;;;;;;20.63;12.80;;;-1.30;73.30;-2.50;101519;;;;566863;250;24153;-82
2022/03/13 02:31:59;;;;;;;22.30;11.80;;;-1.30;73.40;-2.50;101519;;;;557093;253;24126;-83
2022/03/13 02:34:30;;;;;;;19.57;11.80;;;-1.30;73.40;-2.60;101514;;;;558553;253;24117;-81
2022/03/13 02:37:04;;;;;;;19.93;11.70;;;-1.30;73.40;-2.60;101518;;;;558611;253;24133;-82
2022/03/13 02:39:28;;;;;;;19.97;12.43;;;-1.30;73.40;-2.60;101515;;;;558076;251;24197;-83
2022/03/13 02:41:56;;;;;;;22.20;12.47;;;-1.40;73.60;-2.70;101518;;;;559895;253;24114;-83
2022/03/13 02:44:24;;;;;;;22.17;13.57;;;-1.50;73.90;-2.70;101513;;;;564705;250;24091;-82
2022/03/13 02:46:52;;;;;;;23.90;14.57;;;-1.60;74.90;-2.80;101510;;;;567650;250;24139;-83
2022/03/13 02:49:20;;;;;;;27.87;14.90;;;-1.60;74.90;-2.90;101514;;;;558700;253;24114;-81
2022/03/13 02:51:52;;;;;;;25.33;14.83;;;-1.60;75.70;-2.90;101512;;;;558382;253;24149;-82
2022/03/13 02:54:16;;;;;;;25.47;14.03;;;-1.70;75.90;-2.90;101516;;;;558613;253;24125;-81
2022/03/13 02:56:49;;;;;;;24.83;14.17;;;-1.80;76.40;-2.90;101515;;;;557753;253;24144;-81
2022/03/13 02:59:14;;;;;;;29.37;16.50;;;-1.80;76.60;-3.00;101510;;;;565977;250;24118;-80
2022/03/13 03:01:46;;;;;;;30.57;16.20;;;-1.80;76.60;-3.00;101508;;;;571486;250;24141;-80
2022/03/13 03:04:12;;;;;;;35.53;17.40;;;-1.80;76.90;-3.00;101508;;;;552614;255;24142;-81
2022/03/13 03:06:38;;;;;;;33.93;16.60;;;-1.90;77.90;-3.10;101507;;;;566081;253;24110;-81
2022/03/13 03:09:06;;;;;;;30.00;16.17;;;-1.90;77.90;-3.10;101514;;;;558375;253;24142;-81
2022/03/13 03:11:35;;;;;;;29.73;15.83;;;-1.90;79.30;-3.20;101502;;;;566542;249;24121;-79
2022/03/13 03:14:04;;;;;;;27.90;15.53;;;-2.00;79.50;-3.20;101500;;;;557698;253;24113;-81
2022/03/13 03:16:32;;;;;;;29.03;15.63;;;-2.00;79.60;-3.20;101497;;;;558175;253;24120;-82
2022/03/13 03:19:00;;;;;;;32.30;17.23;;;-2.00;79.60;-3.20;101493;;;;557728;253;24120;-80
2022/03/13 03:21:32;;;;;;;32.93;18.13;;;-2.00;79.50;-3.20;101502;;;;557811;253;24122;-81
2022/03/13 03:23:56;;;;;;;41.93;20.80;;;-2.00;79.60;-3.30;101499;;;;558008;253;24147;-80
2022/03/13 03:26:28;;;;;;;31.73;17.03;;;-2.00;80.00;-3.20;101505;;;;557701;253;24103;-81
2022/03/13 03:28:52;;;;;;;27.63;15.07;;;-2.00;80.30;-3.20;101504;;;;565719;253;24183;-81
2022/03/13 03:31:20;;;;;;;28.60;14.53;;;-2.00;80.20;-3.20;101503;;;;557773;253;24219;-82
2022/03/13 03:33:48;;;;;;;24.83;14.23;;;-1.90;79.80;-3.10;101500;;;;557837;253;24122;-83
2022/03/13 03:36:19;;;;;;;26.73;14.77;;;-1.90;79.30;-3.00;101502;;;;557852;253;24145;-83
2022/03/13 03:38:44;;;;;;;23.13;14.07;;;-1.80;79.10;-3.00;101503;;;;558153;253;24180;-82
2022/03/13 03:41:14;;;;;;;29.77;13.90;;;-1.70;78.90;-2.90;101511;;;;557986;253;24121;-81
2022/03/13 03:43:43;;;;;;;22.20;13.87;;;-1.60;78.50;-2.90;101509;;;;558174;253;24216;-82
2022/03/13 03:46:09;;;;;;;25.77;14.23;;;-1.70;78.40;-3.00;101502;;;;557577;253;24117;-80
2022/03/13 03:48:42;;;;;;;39.37;18.50;;;-1.70;78.40;-3.00;101498;;;;556264;253;24149;-80
2022/03/13 03:51:06;;;;;;;30.07;16.30;;;-1.80;78.80;-3.10;101506;;;;557540;251;24129;-81
2022/03/13 03:53:35;;;;;;;31.07;16.70;;;-1.90;79.30;-3.20;101508;;;;558409;253;24132;-80
2022/03/13 03:56:07;;;;;;;34.10;18.07;;;-1.90;79.20;-3.20;101499;;;;556828;253;24150;-81
2022/03/13 03:58:31;;;;;;;28.60;15.80;;;-1.90;79.70;-3.30;101502;;;;557679;253;24128;-80
2022/03/13 04:00:59;;;;;;;25.43;15.37;;;-2.00;80.30;-3.40;101505;;;;563180;250;25150;-80
2022/03/13 04:03:27;;;;;;;30.97;16.73;;;-2.10;81.10;-3.50;101503;;;;552671;255;24153;-81
2022/03/13 04:05:55;;;;;;;30.47;16.70;;;-2.20;81.90;-3.50;101506;;;;552707;255;24148;-79
2022/03/13 04:08:23;;;;;;;52.07;24.30;;;-2.20;82.60;-3.50;101504;;;;552905;255;24137;-80
2022/03/13 04:10:51;;;;;;;49.77;24.90;;;-2.30;83.50;-3.50;101499;;;;553431;255;24135;-80
2022/03/13 04:13:19;;;;;;;44.23;22.67;;;-2.30;84.10;-3.50;101505;;;;553593;255;24238;-80
2022/03/13 04:15:46;;;;;;;37.20;20.77;;;-2.30;84.40;-3.60;101505;;;;553550;255;24136;-80
2022/03/13 04:18:15;;;;;;;39.97;21.90;;;-2.30;84.70;-3.60;101506;;;;553707;255;24172;-80
2022/03/13 04:20:43;;;;;;;43.50;23.40;;;-2.30;85.10;-3.60;101514;;;;553829;255;24179;-80
2022/03/13 04:23:13;;;;;;;45.73;23.10;;;-2.40;85.50;-3.70;101504;;;;564280;254;24198;-81
2022/03/13 04:25:39;;;;;;;43.73;23.17;;;-2.50;87.10;-3.70;101511;;;;553513;255;24171;-82
2022/03/13 04:28:10;;;;;;;35.30;20.83;;;-2.50;88.10;-3.70;101508;;;;552460;255;24140;-81
2022/03/13 04:30:39;;;;;;;38.47;21.90;;;-2.50;88.20;-3.70;101502;;;;552415;255;24152;-81
2022/03/13 04:33:05;;;;;;;41.67;22.60;;;-2.50;88.20;-3.70;101508;;;;552367;255;24149;-80
2022/03/13 04:35:32;;;;;;;39.07;20.50;;;-2.50;88.20;-3.70;101513;;;;552700;255;24160;-81
2022/03/13 04:38:04;;;;;;;37.07;21.07;;;-2.40;88.50;-3.60;101508;;;;552392;255;24167;-81
2022/03/13 04:40:29;;;;;;;34.67;20.00;;;-2.40;88.40;-3.60;101511;;;;557185;253;24174;-81
2022/03/13 04:43:00;;;;;;;36.20;20.00;;;-2.30;88.40;-3.50;101512;;;;571076;250;24140;-81
2022/03/13 04:45:26;;;;;;;36.77;20.73;;;-2.30;88.30;-3.50;101509;;;;552169;255;24148;-81
2022/03/13 04:47:54;;;;;;;40.20;22.50;;;-2.30;88.30;-3.50;101505;;;;566169;249;24167;-80
2022/03/13 04:50:23;;;;;;;37.33;20.03;;;-2.30;88.60;-3.60;101508;;;;552162;255;24169;-80
2022/03/13 04:52:51;;;;;;;39.73;22.70;;;-2.30;89.00;-3.60;101515;;;;552440;255;24154;-80
2022/03/13 04:55:22;;;;;;;37.87;23.10;;;-2.30;88.90;-3.60;101521;;;;552124;255;24177;-80
2022/03/13 04:57:48;;;;;;;45.53;25.90;;;-2.40;90.10;-3.70;101508;;;;552204;255;24146;-80
2022/03/13 05:00:19;;;;;;;47.30;25.90;;;-2.40;90.00;-3.70;101511;;;;552384;255;24163;-81
2022/03/13 05:02:44;;;;;;;51.40;27.97;;;-2.50;90.50;-3.70;101515;;;;565793;251;24162;-81
2022/03/13 05:05:12;;;;;;;50.40;28.80;;;-2.50;90.80;-3.80;101513;;;;558706;253;24117;-82
2022/03/13 05:07:44;;;;;;;49.07;28.77;;;-2.50;91.10;-3.80;101514;;;;558381;253;24148;-81
2022/03/13 05:10:08;;;;;;;54.33;32.53;;;-2.60;91.60;-3.80;101516;;;;558451;252;24195;-81
2022/03/13 05:12:40;;;;;;;68.23;36.83;;;-2.60;92.80;-3.90;101519;;;;566777;249;24129;-82
2022/03/13 05:15:09;;;;;;;65.77;38.90;;;-2.70;93.20;-3.90;101523;;;;566397;253;24123;-85
2022/03/13 05:17:33;;;;;;;74.27;39.30;;;-2.70;93.20;-3.90;101520;;;;558272;253;24107;-81
2022/03/13 05:20:01;;;;;;;61.57;34.63;;;-2.70;93.70;-3.90;101525;;;;558020;253;24126;-81
2022/03/13 05:22:29;;;;;;;67.40;36.13;;;-2.70;94.20;-4.00;101527;;;;557702;253;24143;-81
2022/03/13 05:24:57;;;;;;;68.17;35.33;;;-2.70;94.50;-4.00;101527;;;;571595;247;24108;-81
2022/03/13 05:27:25;;;;;;;65.53;36.53;;;-2.70;95.00;-4.00;101529;;;;552865;255;24126;-81
2022/03/13 05:29:56;;;;;;;63.27;39.27;;;-2.70;95.60;-4.00;101526;;;;552861;255;24183;-81
2022/03/13 05:32:20;;;;;;;69.73;41.27;;;-2.80;96.00;-4.00;101535;;;;562466;255;24174;-81
2022/03/13 05:34:50;;;;;;;73.30;40.30;;;-2.80;96.80;-4.00;101523;;;;552835;255;24174;-81
2022/03/13 05:37:21;;;;;;;79.20;41.50;;;-2.80;96.80;-3.90;101537;;;;552943;255;24139;-81
2022/03/13 05:39:45;;;;;;;74.77;42.37;;;-2.70;97.10;-3.90;101535;;;;552072;255;24149;-81
2022/03/13 05:42:13;;;;;;;71.57;42.27;;;-2.70;97.40;-3.90;101542;;;;552669;255;24129;-81
2022/03/13 05:44:41;;;;;;;77.23;41.47;;;-2.70;97.60;-3.80;101540;;;;552495;255;24171;-81
2022/03/13 05:47:09;;;;;;;71.40;41.37;;;-2.60;97.80;-3.80;101547;;;;567299;253;24106;-81
2022/03/13 05:49:37;;;;;;;72.73;42.63;;;-2.60;97.90;-3.70;101545;;;;556967;253;24148;-81
2022/03/13 05:52:07;;;;;;;68.03;41.33;;;-2.50;97.90;-3.60;101548;;;;556889;253;24125;-82
2022/03/13 05:54:33;;;;;;;72.50;41.27;;;-2.40;98.10;-3.50;101548;;;;557071;253;24126;-81
2022/03/13 05:57:03;;;;;;;70.23;39.87;;;-2.30;98.10;-3.40;101542;;;;556697;253;24160;-81
2022/03/13 05:59:28;;;;;;;80.50;46.28;;;-2.20;98.00;-3.30;101545;;;;552134;253;35571;-81
2022/03/13 06:01:58;;;;;;;53.33;26.77;;;-2.10;98.40;-3.30;101547;;;;556957;253;24126;-82
2022/03/13 06:04:25;;;;;;;80.23;42.80;;;-2.00;98.30;-3.20;101550;;;;556925;253;24107;-82
2022/03/13 06:06:52;;;;;;;86.97;47.63;;;-2.00;98.20;-3.00;101548;;;;556972;253;24110;-82
2022/03/13 06:09:20;;;;;;;85.50;49.07;;;-1.90;98.20;-2.90;101548;;;;556976;253;24129;-82
2022/03/13 06:11:48;;;;;;;81.03;48.00;;;-1.70;98.30;-2.60;101557;;;;556949;253;24161;-79
2022/03/13 06:14:18;;;;;;;76.40;46.13;;;-1.50;98.40;-1.20;101554;;;;557099;251;24087;-79
2022/03/13 06:16:44;;;;;;;63.00;28.43;;;-0.40;98.60;1.40;101573;;;;558340;253;24098;-80
2022/03/13 06:19:16;;;;;;;58.37;29.07;;;1.70;97.30;4.20;101590;;;;565559;250;24156;-81
2022/03/13 06:21:43;;;;;;;47.17;26.63;;;4.40;92.70;7.00;101592;;;;576079;245;24095;-80
2022/03/13 06:24:08;;;;;;;60.83;31.13;;;7.10;78.50;9.20;101600;;;;575660;245;24108;-80
2022/03/13 06:26:36;;;;;;;62.20;31.23;;;9.40;64.70;10.90;101618;;;;584982;245;24133;-83
2022/03/13 06:29:03;;;;;;;57.60;37.73;;;11.30;57.80;12.50;101607;;;;570812;245;46233;-82
2022/03/13 06:31:32;;;;;;;54.70;33.20;;;14.30;51.10;13.90;101618;;;;576176;245;24139;-79
2022/03/13 06:34:01;;;;;;;56.43;33.43;;;15.70;47.30;15.20;101626;;;;575667;245;24077;-80
2022/03/13 06:36:29;;;;;;;52.37;32.57;;;15.70;47.30;16.40;101635;;;;575841;245;24070;-80
2022/03/13 06:38:57;;;;;;;58.87;37.10;;;16.90;45.50;17.50;101637;;;;576172;245;24054;-81
2022/03/13 06:41:25;;;;;;;58.07;37.00;;;18.20;43.30;18.70;101644;;;;576343;245;24058;-82
2022/03/13 06:43:53;;;;;;;53.30;35.73;;;19.20;41.50;19.40;101651;;;;572638;247;24164;-82
2022/03/13 06:46:20;;;;;;;59.60;39.37;;;20.10;39.40;20.10;101654;;;;553875;255;23162;-83
2022/03/13 06:48:48;;;;;;;61.47;40.93;;;20.90;38.00;20.60;101645;;;;553845;255;24136;-82
2022/03/13 06:51:17;;;;;;;60.67;42.90;;;21.50;36.50;21.30;101650;;;;553495;255;24128;-84
2022/03/13 06:53:44;;;;;;;65.07;42.97;;;22.10;35.60;22.30;101654;;;;558421;253;24124;-80
2022/03/13 06:56:12;;;;;;;63.10;42.73;;;22.90;34.50;23.10;101655;;;;557699;253;24207;-79
2022/03/13 06:58:43;;;;;;;58.07;44.57;;;23.70;33.40;24.10;101660;;;;557019;253;23140;-79
2022/03/13 07:01:09;;;;;;;57.93;44.43;;;24.60;32.60;24.90;101663;;;;557928;253;24162;-81
2022/03/13 07:03:37;;;;;;;59.90;45.37;;;26.00;31.10;25.50;101666;;;;557865;253;23213;-79
2022/03/13 07:06:05;;;;;;;58.43;44.97;;;26.00;31.10;26.10;101668;;;;557522;253;23121;-81
2022/03/13 07:08:32;;;;;;;51.30;41.20;;;26.60;30.10;26.80;101673;;;;558876;253;23158;-80
2022/03/13 07:11:04;;;;;;;35.57;28.27;;;27.70;27.80;27.10;101672;;;;558390;253;23111;-82
2022/03/13 07:13:33;;;;;;;35.93;26.70;;;27.60;27.70;27.00;101681;;;;557581;253;24199;-80
2022/03/13 07:15:57;;;;;;;47.03;34.17;;;27.80;27.30;26.90;101675;;;;556918;253;24142;-79
2022/03/13 07:18:26;;;;;;;44.93;33.10;;;27.80;27.40;27.00;101682;;;;557314;253;23116;-80
2022/03/13 07:20:53;;;;;;;40.27;28.57;;;27.90;27.70;27.50;101685;;;;557440;253;23168;-80
2022/03/13 07:23:21;;;;;;;38.53;29.87;;;28.10;27.20;28.00;101684;;;;558439;250;23122;-80
2022/03/13 07:25:52;;;;;;;33.87;25.97;;;28.60;27.20;28.30;101682;;;;558520;251;23190;-80
2022/03/13 07:28:19;;;;;;;26.60;21.58;;;28.90;26.80;28.30;101685;;;;559756;253;23181;-82
2022/03/13 07:30:47;;;;;;;28.95;23.23;;;29.00;26.50;27.00;101686;;;;567278;250;23124;-80
2022/03/13 07:33:16;;;;;;;24.70;20.37;;;28.30;26.20;25.90;101687;;;;558451;253;23124;-80
2022/03/13 07:35:44;;;;;;;21.40;16.07;;;27.30;26.40;25.50;101684;;;;557977;253;23186;-81
2022/03/13 07:38:11;;;;;;;24.80;17.80;;;26.60;26.90;26.10;101690;;;;559181;253;23148;-81
2022/03/13 07:40:39;;;;;;;23.37;18.23;;;26.70;27.40;26.80;101692;;;;559012;253;23127;-80
2022/03/13 07:43:07;;;;;;;17.47;13.73;;;27.30;26.70;27.50;101692;;;;558515;253;23112;-79
2022/03/13 07:45:35;;;;;;;21.80;14.27;;;27.90;26.60;28.30;101692;;;;558254;253;23114;-80
2022/03/13 07:48:03;;;;;;;17.70;15.17;;;28.60;26.10;28.70;101704;;;;558331;253;24137;-80
2022/03/13 07:50:32;;;;;;;19.10;13.93;;;29.30;25.80;29.50;101702;;;;558272;253;23138;-80
2022/03/13 07:53:00;;;;;;;19.30;14.87;;;30.10;25.60;30.20;101708;;;;557952;253;24116;-79
2022/03/13 07:55:31;;;;;;;17.83;14.95;;;30.80;25.30;30.70;101710;;;;558566;253;24173;-81
2022/03/13 07:57:58;;;;;;;15.48;13.85;;;31.30;25.10;31.20;101712;;;;558912;252;24164;-79
2022/03/13 08:00:27;;;;;;;16.85;14.38;;;31.80;24.60;31.30;101711;;;;558354;253;23123;-80
2022/03/13 08:02:56;;;;;;;18.48;16.52;;;32.10;24.80;31.90;101708;;;;566703;251;23131;-81
2022/03/13 08:05:24;;;;;;;16.23;14.63;;;32.50;24.70;32.30;101713;;;;558757;253;23094;-81
2022/03/13 08:07:56;;;;;;;15.02;13.43;;;33.00;24.50;32.50;101709;;;;558001;253;23140;-79
2022/03/13 08:10:23;;;;;;;19.10;14.60;;;33.30;24.20;32.80;101711;;;;556735;253;24126;-79
2022/03/13 08:12:53;;;;;;;14.32;12.82;;;33.70;23.60;32.80;101710;;;;556586;253;23151;-79
2022/03/13 08:15:22;;;;;;;14.98;13.38;;;33.70;23.60;32.80;101710;;;;557111;253;23132;-79
2022/03/13 08:17:47;;;;;;;17.67;14.38;;;33.80;23.60;32.70;101709;;;;561718;251;23133;-79
2022/03/13 08:20:18;;;;;;;18.50;15.70;;;33.80;23.40;32.70;101706;;;;552155;255;24161;-80
2022/03/13 08:22:44;;;;;;;16.98;15.32;;;33.80;23.50;32.40;101707;;;;556823;248;23177;-79
2022/03/13 08:25:16;;;;;;;17.02;15.32;;;33.70;23.70;32.60;101705;;;;562107;251;23129;-81
2022/03/13 08:27:40;;;;;;;18.48;16.58;;;33.70;23.60;32.80;101715;;;;556834;253;23146;-79
2022/03/13 08:30:11;;;;;;;19.15;15.98;;;33.80;23.70;33.00;101705;;;;556710;253;23142;-80
2022/03/13 08:32:36;;;;;;;18.67;16.75;;;34.00;23.80;33.50;101700;;;;556979;253;23147;-80
2022/03/13 08:35:08;;;;;;;19.33;17.33;;;34.30;23.60;33.70;101710;;;;557316;251;46471;-80
2022/03/13 08:37:35;;;;;;;17.37;15.55;;;34.60;23.30;32.60;101704;;;;557099;251;24174;-80
2022/03/13 08:39:59;;;;;;;17.50;15.65;;;34.30;23.00;32.00;101710;;;;558366;253;23144;-78
2022/03/13 08:42:28;;;;;;;16.17;14.38;;;33.80;23.20;31.30;101702;;;;557562;253;23137;-80
2022/03/13 08:44:56;;;;;;;14.95;13.32;;;33.10;23.00;30.30;101704;;;;557605;253;23126;-79
2022/03/13 08:47:24;;;;;;;16.02;12.90;;;32.20;23.30;29.80;101703;;;;557277;253;23171;-79
2022/03/13 08:49:51;;;;;;;14.32;12.15;;;31.50;23.40;29.60;101702;;;;557626;253;23142;-79
2022/03/13 08:52:19;;;;;;;12.93;10.80;;;31.00;23.20;29.00;101704;;;;557302;253;23127;-79
2022/03/13 08:54:47;;;;;;;16.02;11.88;;;30.50;23.20;28.30;101703;;;;565841;253;23201;-80
2022/03/13 08:57:15;;;;;;;13.95;10.65;;;29.90;23.40;28.60;101704;;;;557010;253;23116;-79
2022/03/13 08:59:43;;;;;;;16.00;14.10;;;30.00;23.60;29.30;101705;;;;552462;253;35534;-79
2022/03/13 09:02:11;;;;;;;14.95;12.68;;;30.30;24.00;30.10;101716;;;;571423;250;23130;-80
2022/03/13 09:04:41;;;;;;;13.75;12.35;;;31.00;23.70;30.20;101717;;;;552566;255;23204;-80
2022/03/13 09:07:07;;;;;;;15.05;12.15;;;31.40;23.30;30.00;101716;;;;563197;255;23145;-80
2022/03/13 09:09:35;;;;;;;15.40;13.02;;;31.40;23.20;30.50;101712;;;;552710;255;23186;-82
2022/03/13 09:12:06;;;;;;;14.52;12.40;;;31.70;23.50;31.20;101716;;;;552426;255;24144;-79
2022/03/13 09:14:34;;;;;;;16.42;12.32;;;32.30;23.20;31.10;101719;;;;565373;253;23129;-81
2022/03/13 09:16:59;;;;;;;12.25;11.05;;;32.60;23.50;31.30;101729;;;;556779;253;24130;-80
2022/03/13 09:19:27;;;;;;;13.23;11.93;;;33.10;22.60;31.20;101731;;;;556734;253;24129;-80
2022/03/13 09:21:55;;;;;;;15.50;12.35;;;33.00;22.50;30.90;101727;;;;565383;249;23117;-81
2022/03/13 09:24:23;;;;;;;14.40;12.68;;;32.90;22.60;30.00;101724;;;;552265;255;23200;-84
2022/03/13 09:26:52;;;;;;;15.80;14.15;;;32.00;23.60;30.00;101727;;;;552671;255;23138;-83
2022/03/13 09:29:20;;;;;;;18.00;14.95;;;31.90;23.60;29.90;101716;;;;552263;255;23146;-82
2022/03/13 09:31:49;;;;;;;18.33;15.77;;;31.90;23.60;29.40;101723;;;;552785;255;23147;-84
2022/03/13 09:34:17;;;;;;;20.62;16.17;;;31.50;23.70;29.20;101718;;;;552781;255;23139;-80
2022/03/13 09:36:45;;;;;;;18.12;16.17;;;31.20;24.00;28.80;101720;;;;567606;253;23118;-83
2022/03/13 09:39:12;;;;;;;20.90;17.17;;;30.70;24.10;27.60;101722;;;;558114;253;23126;-80
2022/03/13 09:41:41;;;;;;;24.57;19.70;;;29.80;24.40;25.20;101714;;;;558639;253;23125;-82
2022/03/13 09:44:08;;;;;;;25.17;20.83;;;28.20;25.30;23.70;101720;;;;557695;253;23129;-80
2022/03/13 09:46:39;;;;;;;26.60;21.62;;;26.50;26.10;22.20;101714;;;;552615;253;35524;-82
2022/03/13 09:49:08;;;;;;;25.17;20.23;;;24.80;26.40;20.90;101715;;;;558243;251;24113;-82
2022/03/13 09:51:36;;;;;;;20.97;17.27;;;23.30;27.60;20.00;101709;;;;558786;253;23171;-80
2022/03/13 09:54:05;;;;;;;19.50;16.17;;;22.30;27.90;19.80;101708;;;;558607;253;24128;-80
2022/03/13 09:56:34;;;;;;;17.60;13.30;;;21.70;27.90;20.00;101709;;;;563168;250;23132;-80
2022/03/13 09:59:00;;;;;;;18.13;14.27;;;21.70;27.70;20.20;101706;;;;552723;255;24174;-81
2022/03/13 10:01:31;;;;;;;13.73;11.67;;;21.80;27.60;20.50;101701;;;;552798;255;24139;-82
2022/03/13 10:03:59;;;;;;;13.63;10.07;;;22.10;27.50;20.40;101706;;;;552741;255;24152;-84
2022/03/13 10:06:25;;;;;;;13.77;10.03;;;22.10;27.00;20.40;101700;;;;557727;253;23193;-81
2022/03/13 10:08:59;;;;;;;11.60;10.00;;;22.10;27.00;20.60;101694;;;;552415;255;24138;-79
2022/03/13 10:11:37;;;;;;;13.57;10.90;;;22.30;27.10;21.40;101701;;;;556757;253;24177;-81
2022/03/13 10:14:06;;;;;;;11.13;9.97;;;23.00;27.20;22.40;101697;;;;557072;253;24111;-80
2022/03/13 10:16:37;;;;;;;11.33;10.23;;;23.80;26.70;22.90;101695;;;;557284;253;24208;-80
2022/03/13 10:19:17;;;;;;;13.73;10.60;;;24.50;25.70;23.10;101697;;;;565155;253;24124;-81
2022/03/13 10:22:01;;;;;;;11.90;10.43;;;24.90;25.60;22.90;101693;;;;565129;253;24165;-79
2022/03/13 10:24:28;;;;;;;13.87;10.33;;;25.00;25.40;22.90;101692;;;;541485;255;24164;-80
2022/03/13 10:27:05;;;;;;;11.03;9.07;;;24.90;25.90;22.90;101695;;;;552262;255;24125;-79
2022/03/13 10:29:33;;;;;;;10.07;9.07;;;24.70;25.20;22.60;101689;;;;549801;255;24181;-80
2022/03/13 10:32:05;;;;;;;13.80;10.70;;;24.50;25.70;22.50;101691;;;;557164;253;24107;-80
2022/03/13 10:34:31;;;;;;;11.43;10.20;;;24.30;25.70;22.20;101687;;;;557450;253;24115;-81
2022/03/13 10:37:02;;;;;;;15.17;10.87;;;24.30;25.70;21.70;101682;;;;562902;251;24146;-80
2022/03/13 10:39:27;;;;;;;11.87;9.80;;;23.80;25.40;20.40;101685;;;;557005;253;23136;-80
2022/03/13 10:42:03;;;;;;;13.33;9.70;;;21.90;26.30;19.50;101682;;;;557160;253;24164;-80
2022/03/13 10:44:38;;;;;;;18.47;11.60;;;21.10;27.20;19.00;101673;;;;557110;253;24158;-81
2022/03/13 10:47:05;;;;;;;13.20;10.70;;;20.50;28.20;18.50;101677;;;;557087;253;24103;-79
2022/03/13 10:49:35;;;;;;;18.43;11.53;;;20.50;27.60;17.80;101666;;;;556970;253;24133;-80
2022/03/13 10:52:02;;;;;;;17.30;11.17;;;18.80;28.70;16.90;101666;;;;556951;253;24128;-80
2022/03/13 10:54:32;;;;;;;12.77;9.20;;;18.70;28.70;15.60;101663;;;;562165;251;24140;-79
2022/03/13 10:57:09;;;;;;;12.63;9.40;;;17.40;29.00;14.70;101662;;;;551961;255;24136;-81
2022/03/13 10:59:39;;;;;;;16.50;9.37;;;16.20;30.10;13.90;101648;;;;566932;253;24110;-80